Time;durP1;ratioP1;P1;durP2;ratioP2;P2;SDS_P1;SDS_P2;PMS_P1;PMS_P2;Temp;Humidity;BMP_temperature;BMP_pressure;BME280_temperature;BME280_humidity;BME280_pressure;Samples;Min_cycle;Max_cycle;Signal;HPM_P1;HPM_P2
2022/09/23 00:02:12;;;;;;;4.60;3.60;;;;;;;;;;5082525;28;20203;-76
2022/09/23 00:04:41;;;;;;;4.47;3.70;;;;;;;;;;5073422;28;20173;-76
2022/09/23 00:07:08;;;;;;;3.77;3.37;;;;;;;;;;5075484;28;20276;-76
2022/09/23 00:09:34;;;;;;;4.03;3.63;;;;;;;;;;5082853;28;20204;-76
2022/09/23 00:12:01;;;;;;;4.50;3.50;;;;;;;;;;5074620;28;20568;-78
2022/09/23 00:14:30;;;;;;;3.30;2.90;;;;;;;;;;5066950;28;21034;-76
2022/09/23 00:16:57;;;;;;;3.10;2.70;;;;;;;;;;5084130;28;20177;-76
2022/09/23 00:19:24;;;;;;;2.10;1.90;;;;;;;;;;5084172;28;20197;-76
2022/09/23 00:21:50;;;;;;;2.67;2.40;;;;;;;;;;5065951;28;20863;-76
2022/09/23 00:24:18;;;;;;;4.17;2.30;;;;;;;;;;5079404;28;20501;-76
2022/09/23 00:26:47;;;;;;;2.80;2.00;;;;;;;;;;5067153;28;20568;-76
2022/09/23 00:29:14;;;;;;;2.33;2.13;;;;;;;;;;5066070;28;20578;-76
2022/09/23 00:31:41;;;;;;;3.47;2.10;;;;;;;;;;5063110;28;20227;-76
2022/09/23 00:34:10;;;;;;;2.50;2.30;;;;;;;;;;5084982;28;20184;-80
2022/09/23 00:36:37;;;;;;;2.20;2.00;;;;;;;;;;5070651;28;20199;-77
2022/09/23 00:39:04;;;;;;;2.40;2.20;;;;;;;;;;5088577;28;20196;-76
2022/09/23 00:41:30;;;;;;;3.20;2.30;;;;;;;;;;5083717;28;20181;-76
2022/09/23 00:43:58;;;;;;;2.20;2.00;;;;;;;;;;5070856;28;20843;-76
2022/09/23 00:46:39;;;;;;;3.30;2.33;;;;;;;;;;5080596;28;20185;-76
2022/09/23 00:49:09;;;;;;;2.30;1.93;;;;;;;;;;5070686;28;20251;-76
2022/09/23 00:51:38;;;;;;;2.00;1.80;;;;;;;;;;5074996;28;20192;-75
2022/09/23 00:54:08;;;;;;;2.40;2.00;;;;;;;;;;5062121;28;20217;-76
2022/09/23 00:56:35;;;;;;;2.83;1.73;;;;;;;;;;5083225;28;20177;-76
2022/09/23 00:59:10;;;;;;;1.93;1.70;;;;;;;;;;5059644;28;20236;-75
2022/09/23 01:01:37;;;;;;;2.33;1.90;;;;;;;;;;5089499;28;20192;-76
2022/09/23 01:04:04;;;;;;;3.97;2.33;;;;;;;;;;5068335;28;20181;-75
2022/09/23 01:06:33;;;;;;;2.40;2.20;;;;;;;;;;5081139;28;20180;-75
2022/09/23 01:09:00;;;;;;;2.67;2.27;;;;;;;;;;5090054;28;20204;-76
2022/09/23 01:11:38;;;;;;;2.60;2.40;;;;;;;;;;5077516;28;20246;-76
2022/09/23 01:14:15;;;;;;;3.33;3.00;;;;;;;;;;5069113;28;20192;-75
2022/09/23 01:16:47;;;;;;;2.67;2.47;;;;;;;;;;5089645;28;20184;-76
2022/09/23 01:19:32;;;;;;;2.70;2.50;;;;;;;;;;5080397;28;20197;-76
2022/09/23 01:22:18;;;;;;;3.20;2.87;;;;;;;;;;5084396;28;20188;-75
2022/09/23 01:24:45;;;;;;;3.40;3.10;;;;;;;;;;5088456;28;20189;-76
2022/09/23 01:27:16;;;;;;;5.10;3.00;;;;;;;;;;5075997;28;20259;-76
2022/09/23 01:29:52;;;;;;;2.90;2.60;;;;;;;;;;5081919;28;20200;-76
2022/09/23 01:32:33;;;;;;;3.20;2.90;;;;;;;;;;5088322;28;20199;-76
2022/09/23 01:35:08;;;;;;;4.33;3.13;;;;;;;;;;5078965;28;20184;-75
2022/09/23 01:37:44;;;;;;;3.87;2.90;;;;;;;;;;5083536;28;20207;-76
2022/09/23 01:40:16;;;;;;;3.63;2.80;;;;;;;;;;5083905;28;20200;-76
2022/09/23 01:42:57;;;;;;;2.67;2.43;;;;;;;;;;5058997;28;20192;-76
2022/09/23 01:45:28;;;;;;;3.47;2.60;;;;;;;;;;5086263;28;20200;-76
2022/09/23 01:48:01;;;;;;;3.73;3.27;;;;;;;;;;5063151;28;20188;-75
2022/09/23 01:53:23;;;;;;;4.57;2.97;;;;;;;;;;5085431;28;20177;-76
2022/09/23 01:55:51;;;;;;;4.47;2.80;;;;;;;;;;5081904;28;20185;-76
2022/09/23 01:58:22;;;;;;;3.27;2.90;;;;;;;;;;5081495;28;20284;-76
2022/09/23 02:00:57;;;;;;;2.70;2.50;;;;;;;;;;5053048;28;20184;-76
2022/09/23 02:03:26;;;;;;;2.87;2.67;;;;;;;;;;5083376;28;20184;-76
2022/09/23 02:05:58;;;;;;;3.27;2.97;;;;;;;;;;5081528;28;20205;-76
2022/09/23 02:08:34;;;;;;;2.73;2.53;;;;;;;;;;5083134;28;20224;-75
2022/09/23 02:11:08;;;;;;;3.40;2.97;;;;;;;;;;5065994;28;20208;-76
2022/09/23 02:13:46;;;;;;;3.70;3.00;;;;;;;;;;5064508;28;20330;-76
2022/09/23 02:16:39;;;;;;;3.73;3.40;;;;;;;;;;5077669;28;20192;-76
2022/09/23 02:19:24;;;;;;;6.27;3.17;;;;;;;;;;5080513;28;20361;-76
2022/09/23 02:21:54;;;;;;;4.60;3.10;;;;;;;;;;5080151;28;20184;-75
2022/09/23 02:24:25;;;;;;;4.40;3.23;;;;;;;;;;5068378;28;20196;-76
2022/09/23 02:26:57;;;;;;;4.70;3.93;;;;;;;;;;5068577;28;20662;-76
2022/09/23 02:29:35;;;;;;;5.40;3.63;;;;;;;;;;5081958;28;20196;-75
2022/09/23 02:32:23;;;;;;;4.93;4.03;;;;;;;;;;5087483;28;20215;-76
2022/09/23 02:35:01;;;;;;;4.70;3.87;;;;;;;;;;5086742;28;20644;-76
2022/09/23 02:37:36;;;;;;;4.20;3.70;;;;;;;;;;5082675;28;20176;-75
2022/09/23 02:40:13;;;;;;;6.03;4.00;;;;;;;;;;5052254;28;20207;-76
2022/09/23 02:42:40;;;;;;;3.93;3.53;;;;;;;;;;5077804;28;20287;-75
2022/09/23 02:45:07;;;;;;;4.87;3.80;;;;;;;;;;5071551;28;20272;-75
2022/09/23 02:47:38;;;;;;;3.97;3.47;;;;;;;;;;5052385;28;20528;-75
2022/09/23 02:50:08;;;;;;;5.30;3.37;;;;;;;;;;5086722;28;20675;-76
2022/09/23 02:52:36;;;;;;;4.60;3.83;;;;;;;;;;5078697;28;20667;-75
2022/09/23 02:55:03;;;;;;;4.20;3.43;;;;;;;;;;5076478;28;20624;-76
2022/09/23 02:57:30;;;;;;;4.20;3.50;;;;;;;;;;5059741;28;20656;-76
2022/09/23 03:00:01;;;;;;;4.13;3.50;;;;;;;;;;5081314;28;20524;-76
2022/09/23 03:02:37;;;;;;;3.73;3.43;;;;;;;;;;5086571;28;20284;-76
2022/09/23 03:05:14;;;;;;;4.57;3.20;;;;;;;;;;5065938;28;20180;-76
2022/09/23 03:07:41;;;;;;;3.50;3.20;;;;;;;;;;5079697;28;20673;-76
2022/09/23 03:10:23;;;;;;;4.83;3.83;;;;;;;;;;5077985;28;20208;-75
2022/09/23 03:12:57;;;;;;;5.77;3.50;;;;;;;;;;5084602;28;20693;-76
2022/09/23 03:15:38;;;;;;;3.43;3.13;;;;;;;;;;5086957;28;20200;-75
2022/09/23 03:18:15;;;;;;;4.53;3.47;;;;;;;;;;5077221;28;20181;-75
2022/09/23 03:20:49;;;;;;;4.27;3.50;;;;;;;;;;5061922;28;20246;-76
2022/09/23 03:23:19;;;;;;;3.27;2.90;;;;;;;;;;5076052;28;20200;-75
2022/09/23 03:25:48;;;;;;;3.97;3.57;;;;;;;;;;5084541;28;20183;-75
2022/09/23 03:28:16;;;;;;;3.47;3.13;;;;;;;;;;5081584;28;20264;-75
2022/09/23 03:30:43;;;;;;;4.80;3.60;;;;;;;;;;5076191;28;20250;-75
2022/09/23 03:33:11;;;;;;;5.10;3.57;;;;;;;;;;5078349;28;20181;-76
2022/09/23 03:36:50;;;;;;;3.40;3.10;;;;;;;;;;5066196;28;20184;-75
2022/09/23 03:38:31;;;;;;;4.93;3.40;;;;;;;;;;5084710;28;20270;-76
2022/09/23 03:41:01;;;;;;;4.40;3.80;;;;;;;;;;5086294;28;20181;-76
2022/09/23 03:43:28;;;;;;;4.27;3.87;;;;;;;;;;5054532;28;20195;-75
2022/09/23 03:45:56;;;;;;;4.33;3.93;;;;;;;;;;5065967;28;20271;-76
2022/09/23 03:48:25;;;;;;;5.60;3.57;;;;;;;;;;5084120;28;20197;-75
2022/09/23 03:50:51;;;;;;;6.07;4.10;;;;;;;;;;5077450;28;20282;-76
2022/09/23 03:53:19;;;;;;;4.47;4.07;;;;;;;;;;5085951;28;20677;-75
2022/09/23 03:55:47;;;;;;;5.03;4.07;;;;;;;;;;5082944;28;20188;-76
2022/09/23 03:58:14;;;;;;;5.10;3.53;;;;;;;;;;5075342;28;20209;-75
2022/09/23 04:00:45;;;;;;;3.90;3.50;;;;;;;;;;5076101;28;20947;-75
2022/09/23 04:03:12;;;;;;;4.93;3.87;;;;;;;;;;5085632;28;20656;-75
2022/09/23 04:05:38;;;;;;;4.53;4.13;;;;;;;;;;5074379;28;20185;-75
2022/09/23 04:08:05;;;;;;;4.50;3.63;;;;;;;;;;5072895;28;20263;-76
2022/09/23 04:10:32;;;;;;;4.90;4.30;;;;;;;;;;5079338;28;20223;-76
2022/09/23 04:12:59;;;;;;;5.17;4.33;;;;;;;;;;5067132;28;20516;-75
2022/09/23 04:15:25;;;;;;;4.97;4.07;;;;;;;;;;5068996;28;20226;-75
2022/09/23 04:17:55;;;;;;;5.93;4.33;;;;;;;;;;5090290;28;20656;-76
2022/09/23 04:20:21;;;;;;;4.60;3.93;;;;;;;;;;5071116;28;20208;-75
2022/09/23 04:22:48;;;;;;;4.73;4.23;;;;;;;;;;5090867;28;20184;-75
2022/09/23 04:25:15;;;;;;;4.90;4.40;;;;;;;;;;5080227;28;20248;-75
2022/09/23 04:27:44;;;;;;;5.27;4.53;;;;;;;;;;5080133;28;20276;-75
2022/09/23 04:30:11;;;;;;;8.97;5.53;;;;;;;;;;5060769;28;20198;-75
2022/09/23 04:32:37;;;;;;;5.87;4.70;;;;;;;;;;5077918;28;20174;-75
2022/09/23 04:35:04;;;;;;;4.90;4.40;;;;;;;;;;5074634;28;20236;-75
2022/09/23 04:37:31;;;;;;;5.30;4.23;;;;;;;;;;5066452;28;20189;-75
2022/09/23 04:40:00;;;;;;;6.00;4.50;;;;;;;;;;5071813;28;20200;-75
2022/09/23 04:42:29;;;;;;;4.80;4.13;;;;;;;;;;5085579;28;20548;-76
2022/09/23 04:44:56;;;;;;;4.78;4.32;;;;;;;;;;5071228;28;20519;-75
2022/09/23 04:47:26;;;;;;;5.23;4.30;;;;;;;;;;5081406;28;20184;-75
2022/09/23 04:49:53;;;;;;;4.97;4.40;;;;;;;;;;5083419;28;20201;-75
2022/09/23 04:52:20;;;;;;;4.77;4.20;;;;;;;;;;5071617;28;20177;-75
2022/09/23 04:54:46;;;;;;;4.47;4.03;;;;;;;;;;5072023;28;20208;-75
2022/09/23 04:57:13;;;;;;;4.63;4.23;;;;;;;;;;5088055;28;20184;-75
2022/09/23 04:59:44;;;;;;;5.80;4.40;;;;;;;;;;5089123;28;20219;-80
2022/09/23 05:02:11;;;;;;;4.90;4.07;;;;;;;;;;5080600;28;20184;-79
2022/09/23 05:04:39;;;;;;;7.30;4.43;;;;;;;;;;5056669;28;20307;-75
2022/09/23 05:07:06;;;;;;;5.87;4.63;;;;;;;;;;5082047;28;20185;-74
2022/09/23 05:09:33;;;;;;;8.67;4.50;;;;;;;;;;5079176;28;20192;-75
2022/09/23 05:11:59;;;;;;;5.80;3.87;;;;;;;;;;5082651;28;20899;-75
2022/09/23 05:14:26;;;;;;;5.40;4.73;;;;;;;;;;5078748;28;20177;-73
2022/09/23 05:16:53;;;;;;;5.70;4.80;;;;;;;;;;5085174;28;20215;-74
2022/09/23 05:19:19;;;;;;;6.20;4.70;;;;;;;;;;5076896;28;20263;-75
2022/09/23 05:21:46;;;;;;;7.63;4.50;;;;;;;;;;5078368;28;20180;-74
2022/09/23 05:24:13;;;;;;;8.13;4.50;;;;;;;;;;5084108;28;20188;-75
2022/09/23 05:26:40;;;;;;;4.67;4.17;;;;;;;;;;5076139;28;20618;-75
2022/09/23 05:29:08;;;;;;;6.17;4.13;;;;;;;;;;5088162;28;20244;-76
2022/09/23 05:31:35;;;;;;;5.07;4.40;;;;;;;;;;5066286;28;20265;-75
2022/09/23 05:34:03;;;;;;;6.33;4.33;;;;;;;;;;5080717;28;20259;-74
2022/09/23 05:36:31;;;;;;;6.37;4.50;;;;;;;;;;5084615;28;20181;-74
2022/09/23 05:38:58;;;;;;;6.23;4.23;;;;;;;;;;5085809;28;20275;-73
2022/09/23 05:41:27;;;;;;;4.53;4.13;;;;;;;;;;5085764;28;20199;-74
2022/09/23 05:43:54;;;;;;;5.73;4.77;;;;;;;;;;5083229;28;20188;-73
2022/09/23 05:46:26;;;;;;;6.47;4.87;;;;;;;;;;5083053;28;20196;-74
2022/09/23 05:48:56;;;;;;;5.10;4.30;;;;;;;;;;5080600;28;20212;-74
2022/09/23 05:51:24;;;;;;;5.03;4.50;;;;;;;;;;5085434;28;20200;-74
2022/09/23 05:53:51;;;;;;;6.87;4.60;;;;;;;;;;5084484;28;20178;-74
2022/09/23 05:56:19;;;;;;;6.77;4.77;;;;;;;;;;5079734;28;20265;-75
2022/09/23 05:58:48;;;;;;;5.07;4.43;;;;;;;;;;5068194;28;20262;-74
2022/09/23 06:01:25;;;;;;;5.80;5.30;;;;;;;;;;5083213;28;20181;-75
2022/09/23 06:03:53;;;;;;;5.03;4.43;;;;;;;;;;5063902;28;20240;-75
2022/09/23 06:06:20;;;;;;;6.87;4.60;;;;;;;;;;5084022;28;20284;-74
2022/09/23 06:08:47;;;;;;;6.10;4.53;;;;;;;;;;5080046;28;20208;-74
2022/09/23 06:11:13;;;;;;;6.27;4.40;;;;;;;;;;5075665;28;20228;-75
2022/09/23 06:13:40;;;;;;;6.77;5.50;;;;;;;;;;5078662;28;20215;-74
2022/09/23 06:16:08;;;;;;;6.60;5.57;;;;;;;;;;5088157;28;20261;-74
2022/09/23 06:18:35;;;;;;;9.20;6.90;;;;;;;;;;5088060;28;20211;-75
2022/09/23 06:21:02;;;;;;;7.57;5.80;;;;;;;;;;5086180;28;20268;-75
2022/09/23 06:23:29;;;;;;;7.50;5.20;;;;;;;;;;5079673;28;20178;-75
2022/09/23 06:26:00;;;;;;;6.80;5.90;;;;;;;;;;5075962;28;20180;-75
2022/09/23 06:28:31;;;;;;;6.27;5.67;;;;;;;;;;5081247;28;20220;-75
2022/09/23 06:31:03;;;;;;;7.47;4.93;;;;;;;;;;5068324;28;20212;-75
2022/09/23 06:33:35;;;;;;;7.23;4.70;;;;;;;;;;5068465;28;20222;-74
2022/09/23 06:36:03;;;;;;;6.13;4.87;;;;;;;;;;5051071;28;20169;-75
2022/09/23 06:38:29;;;;;;;6.87;5.23;;;;;;;;;;5083562;28;20295;-75
2022/09/23 06:40:56;;;;;;;6.83;5.47;;;;;;;;;;5072807;28;20177;-75
2022/09/23 06:43:23;;;;;;;6.97;5.70;;;;;;;;;;5068152;28;20546;-75
2022/09/23 06:45:53;;;;;;;4.97;4.37;;;;;;;;;;5063330;28;20188;-75
2022/09/23 06:48:20;;;;;;;7.40;5.50;;;;;;;;;;5066953;28;20188;-75
2022/09/23 06:50:50;;;;;;;4.63;4.17;;;;;;;;;;5075591;28;20667;-74
2022/09/23 06:53:17;;;;;;;7.17;4.97;;;;;;;;;;5085628;28;20184;-75
2022/09/23 06:55:43;;;;;;;6.13;5.10;;;;;;;;;;5085148;28;20675;-75
2022/09/23 06:58:09;;;;;;;5.50;5.00;;;;;;;;;;5084298;28;20191;-75
2022/09/23 07:00:36;;;;;;;5.70;4.73;;;;;;;;;;5085448;28;20291;-75
2022/09/23 07:03:07;;;;;;;7.40;5.47;;;;;;;;;;5079332;28;20200;-75
2022/09/23 07:05:34;;;;;;;6.53;4.90;;;;;;;;;;5065184;28;20185;-75
2022/09/23 07:08:08;;;;;;;7.07;5.27;;;;;;;;;;5044950;28;20847;-74
2022/09/23 07:10:35;;;;;;;7.27;5.53;;;;;;;;;;5083459;28;20231;-75
2022/09/23 07:13:03;;;;;;;8.23;5.53;;;;;;;;;;5075957;28;20189;-75
2022/09/23 07:15:33;;;;;;;8.57;5.57;;;;;;;;;;5076560;28;20170;-75
2022/09/23 07:18:00;;;;;;;7.03;5.40;;;;;;;;;;5072257;28;20219;-75
2022/09/23 07:20:26;;;;;;;10.43;5.87;;;;;;;;;;5077533;28;20200;-75
2022/09/23 07:22:53;;;;;;;7.17;5.63;;;;;;;;;;5084655;28;20184;-74
2022/09/23 07:25:23;;;;;;;8.93;5.30;;;;;;;;;;5079553;28;20224;-75
2022/09/23 07:27:49;;;;;;;8.80;5.40;;;;;;;;;;5085531;28;20258;-75
2022/09/23 07:30:16;;;;;;;7.30;5.70;;;;;;;;;;5083212;28;20199;-75
2022/09/23 07:32:43;;;;;;;5.90;5.30;;;;;;;;;;5088353;28;20214;-74
2022/09/23 07:35:13;;;;;;;7.40;5.10;;;;;;;;;;5083302;28;20258;-75
2022/09/23 07:37:47;;;;;;;8.13;5.93;;;;;;;;;;5078441;28;20299;-75
2022/09/23 07:40:13;;;;;;;7.17;5.73;;;;;;;;;;5088067;28;20201;-75
2022/09/23 07:42:40;;;;;;;8.60;6.00;;;;;;;;;;5081454;28;20586;-74
2022/09/23 07:45:07;;;;;;;10.00;5.60;;;;;;;;;;5063202;28;20627;-75
2022/09/23 07:47:34;;;;;;;7.93;5.67;;;;;;;;;;5085015;28;20202;-75
2022/09/23 07:50:00;;;;;;;8.70;5.67;;;;;;;;;;5065642;28;20303;-75
2022/09/23 07:52:27;;;;;;;8.30;6.20;;;;;;;;;;5084678;28;20268;-75
2022/09/23 07:54:53;;;;;;;8.90;6.13;;;;;;;;;;5079921;28;20174;-75
2022/09/23 07:57:22;;;;;;;9.83;6.20;;;;;;;;;;5088428;28;20183;-75
2022/09/23 07:59:49;;;;;;;9.13;6.40;;;;;;;;;;5086873;28;20220;-74
2022/09/23 08:02:15;;;;;;;9.50;6.83;;;;;;;;;;5082390;28;20567;-74
2022/09/23 08:04:41;;;;;;;7.70;6.20;;;;;;;;;;5088927;28;20180;-74
2022/09/23 08:07:08;;;;;;;7.00;6.00;;;;;;;;;;5092172;28;20188;-75
2022/09/23 08:09:40;;;;;;;6.07;5.40;;;;;;;;;;5089099;28;20195;-74
2022/09/23 08:12:07;;;;;;;7.97;6.30;;;;;;;;;;5092666;28;20682;-75
2022/09/23 08:14:33;;;;;;;10.53;6.20;;;;;;;;;;5083407;28;20203;-75
2022/09/23 08:17:02;;;;;;;9.80;6.20;;;;;;;;;;5087708;28;20177;-74
2022/09/23 08:19:28;;;;;;;8.50;5.93;;;;;;;;;;5087006;28;20228;-74
2022/09/23 08:21:56;;;;;;;10.00;6.13;;;;;;;;;;5090598;28;20187;-75
2022/09/23 08:24:25;;;;;;;6.57;5.50;;;;;;;;;;5090097;28;20184;-75
2022/09/23 08:26:55;;;;;;;6.47;5.87;;;;;;;;;;5069529;28;20180;-75
2022/09/23 08:29:24;;;;;;;7.33;5.57;;;;;;;;;;5088682;28;20211;-75
2022/09/23 08:31:51;;;;;;;6.13;5.53;;;;;;;;;;5089339;28;20196;-73
2022/09/23 08:34:19;;;;;;;6.90;6.20;;;;;;;;;;5086994;28;20170;-75
2022/09/23 08:36:46;;;;;;;7.93;7.23;;;;;;;;;;5092854;28;20176;-75
2022/09/23 08:39:14;;;;;;;7.80;7.00;;;;;;;;;;5084690;28;20292;-74
2022/09/23 08:41:55;;;;;;;7.53;6.73;;;;;;;;;;5092871;28;20185;-75
2022/09/23 08:44:25;;;;;;;7.33;6.60;;;;;;;;;;5089610;28;20193;-75
2022/09/23 08:46:54;;;;;;;8.70;6.43;;;;;;;;;;5092869;28;20180;-75
2022/09/23 08:49:24;;;;;;;7.70;5.73;;;;;;;;;;5086395;28;20204;-75
2022/09/23 08:51:53;;;;;;;7.67;6.50;;;;;;;;;;5082019;28;20193;-75
2022/09/23 08:54:25;;;;;;;6.30;5.77;;;;;;;;;;5075688;28;20270;-75
2022/09/23 08:56:51;;;;;;;7.17;6.47;;;;;;;;;;5073806;28;20209;-75
2022/09/23 08:59:26;;;;;;;6.47;5.87;;;;;;;;;;5082055;28;20683;-77
2022/09/23 09:01:55;;;;;;;7.53;6.20;;;;;;;;;;5087063;28;20180;-76
2022/09/23 09:04:36;;;;;;;6.93;6.23;;;;;;;;;;5086847;28;20184;-76
2022/09/23 09:07:11;;;;;;;6.83;6.00;;;;;;;;;;5090410;28;20188;-76
2022/09/23 09:09:44;;;;;;;7.97;6.50;;;;;;;;;;5084100;28;20200;-75
2022/09/23 09:12:14;;;;;;;6.97;6.27;;;;;;;;;;5091250;28;20277;-76
2022/09/23 09:14:50;;;;;;;10.07;6.70;;;;;;;;;;5084673;28;20189;-76
2022/09/23 09:17:35;;;;;;;7.40;6.43;;;;;;;;;;5089814;28;20176;-75
2022/09/23 09:20:17;;;;;;;8.63;6.77;;;;;;;;;;5090288;28;20200;-76
2022/09/23 09:22:47;;;;;;;7.93;6.53;;;;;;;;;;5085258;28;20198;-75
2022/09/23 09:25:16;;;;;;;7.20;6.50;;;;;;;;;;5084103;28;20278;-78
2022/09/23 09:27:43;;;;;;;7.10;6.40;;;;;;;;;;5073884;28;20566;-76
2022/09/23 09:30:13;;;;;;;6.40;5.80;;;;;;;;;;5084450;28;20201;-75
2022/09/23 09:32:46;;;;;;;6.77;6.07;;;;;;;;;;5070435;28;20169;-77
2022/09/23 09:35:19;;;;;;;7.40;6.43;;;;;;;;;;5086748;28;20168;-79
2022/09/23 09:37:47;;;;;;;7.17;6.23;;;;;;;;;;5074613;28;20211;-75
2022/09/23 09:40:19;;;;;;;6.57;5.67;;;;;;;;;;5083389;28;20687;-78
2022/09/23 09:42:49;;;;;;;6.53;5.93;;;;;;;;;;5066332;28;20177;-77
2022/09/23 09:45:53;;;;;;;6.90;6.20;;;;;;;;;;5087224;28;20196;-77
2022/09/23 09:48:40;;;;;;;7.40;5.97;;;;;;;;;;5016268;28;20270;-78
2022/09/23 09:51:17;;;;;;;7.93;6.30;;;;;;;;;;5075446;28;20212;-77
2022/09/23 09:53:44;;;;;;;6.43;5.47;;;;;;;;;;5050973;28;22120;-77
2022/09/23 09:56:14;;;;;;;7.37;6.67;;;;;;;;;;5073688;28;20177;-77
2022/09/23 09:58:46;;;;;;;7.60;6.03;;;;;;;;;;5072880;28;20302;-76
2022/09/23 10:01:23;;;;;;;11.77;6.73;;;;;;;;;;5066866;28;20203;-77
2022/09/23 10:03:52;;;;;;;7.10;6.40;;;;;;;;;;5088469;28;20192;-77
2022/09/23 10:06:20;;;;;;;8.03;6.33;;;;;;;;;;5087588;28;20764;-77
2022/09/23 10:08:48;;;;;;;7.37;6.03;;;;;;;;;;5087276;28;20717;-75
2022/09/23 10:11:19;;;;;;;6.70;6.10;;;;;;;;;;5071142;28;20245;-76
2022/09/23 10:13:59;;;;;;;6.70;6.03;;;;;;;;;;5083244;28;20687;-75
2022/09/23 10:16:26;;;;;;;8.13;6.50;;;;;;;;;;5070962;28;20206;-76
2022/09/23 10:18:56;;;;;;;8.03;6.83;;;;;;;;;;5078550;28;20265;-76
2022/09/23 10:21:24;;;;;;;7.30;6.60;;;;;;;;;;5077378;28;20679;-76
2022/09/23 10:23:52;;;;;;;7.27;6.20;;;;;;;;;;5078247;28;20188;-76
2022/09/23 10:26:26;;;;;;;10.30;5.97;;;;;;;;;;5077397;28;20177;-75
2022/09/23 10:28:58;;;;;;;7.43;6.30;;;;;;;;;;5076018;28;20740;-77
2022/09/23 10:31:26;;;;;;;6.27;5.43;;;;;;;;;;5065405;28;20436;-80
2022/09/23 10:33:56;;;;;;;6.50;5.40;;;;;;;;;;5061034;28;20664;-80
2022/09/23 10:36:23;;;;;;;6.17;5.57;;;;;;;;;;5081422;28;20204;-80
2022/09/23 10:38:52;;;;;;;7.47;5.37;;;;;;;;;;5070777;28;20196;-80
2022/09/23 10:47:18;;;;;;;6.30;4.73;;;;;;;;;;5083160;28;20295;-80
2022/09/23 10:49:51;;;;;;;4.63;3.90;;;;;;;;;;5075507;28;20208;-80
2022/09/23 10:52:26;;;;;;;8.50;5.10;;;;;;;;;;5065389;28;20200;-79
2022/09/23 10:54:53;;;;;;;5.47;4.73;;;;;;;;;;5073326;28;20242;-79
2022/09/23 10:57:39;;;;;;;7.80;4.83;;;;;;;;;;5078008;28;20196;-79
2022/09/23 11:00:24;;;;;;;4.60;4.20;;;;;;;;;;5081025;28;20211;-78
2022/09/23 11:02:51;;;;;;;5.47;4.07;;;;;;;;;;5063871;28;20193;-79
2022/09/23 11:05:24;;;;;;;4.77;4.27;;;;;;;;;;5069269;28;20188;-79
2022/09/23 11:07:57;;;;;;;5.10;4.30;;;;;;;;;;5064418;28;20196;-79
2022/09/23 11:10:42;;;;;;;4.33;3.17;;;;;;;;;;5077532;28;20203;-78
2022/09/23 11:13:15;;;;;;;3.83;3.27;;;;;;;;;;5078059;28;20182;-79
2022/09/23 11:15:42;;;;;;;3.80;2.83;;;;;;;;;;5074039;28;20176;-78
2022/09/23 11:18:15;;;;;;;3.40;3.00;;;;;;;;;;5074936;28;20185;-78
2022/09/23 11:21:00;;;;;;;3.83;3.33;;;;;;;;;;5078745;28;20184;-78
2022/09/23 11:23:37;;;;;;;7.53;3.00;;;;;;;;;;5085481;28;20194;-79
2022/09/23 11:26:10;;;;;;;4.80;3.20;;;;;;;;;;5086984;28;20184;-79
2022/09/23 11:29:01;;;;;;;3.77;2.90;;;;;;;;;;5087857;28;20603;-78
2022/09/23 11:31:39;;;;;;;3.80;2.40;;;;;;;;;;5087970;28;20212;-79
2022/09/23 11:34:21;;;;;;;5.47;3.30;;;;;;;;;;5080429;28;20757;-79
2022/09/23 11:36:52;;;;;;;4.03;3.03;;;;;;;;;;5084223;28;20527;-78
2022/09/23 11:39:23;;;;;;;6.30;3.20;;;;;;;;;;5083139;28;20222;-78
2022/09/23 11:41:53;;;;;;;3.10;2.80;;;;;;;;;;5055807;28;20180;-79
2022/09/23 11:44:25;;;;;;;2.90;2.60;;;;;;;;;;5073229;28;20212;-78
2022/09/23 11:46:58;;;;;;;3.43;2.83;;;;;;;;;;5081257;28;20253;-78
2022/09/23 11:49:33;;;;;;;5.10;3.20;;;;;;;;;;5070733;28;20902;-78
2022/09/23 11:52:00;;;;;;;5.10;3.73;;;;;;;;;;5086268;28;20196;-79
2022/09/23 11:54:34;;;;;;;5.00;3.40;;;;;;;;;;5083096;28;20703;-78
2022/09/23 11:57:03;;;;;;;6.40;2.63;;;;;;;;;;5081724;28;20184;-78
2022/09/23 11:59:36;;;;;;;3.13;2.83;;;;;;;;;;5068340;28;20311;-78
2022/09/23 12:02:22;;;;;;;3.43;3.00;;;;;;;;;;5085006;28;20180;-78
2022/09/23 12:04:56;;;;;;;3.47;3.17;;;;;;;;;;5087614;28;20705;-78
2022/09/23 12:07:26;;;;;;;3.80;3.30;;;;;;;;;;5078487;28;20192;-79
2022/09/23 12:10:04;;;;;;;3.73;2.90;;;;;;;;;;5050135;28;20204;-79
2022/09/23 12:12:37;;;;;;;3.60;3.00;;;;;;;;;;5074862;28;20201;-79
2022/09/23 12:15:06;;;;;;;3.43;2.90;;;;;;;;;;5087686;28;20200;-78
2022/09/23 12:17:41;;;;;;;3.67;3.30;;;;;;;;;;5080762;28;20186;-79
2022/09/23 12:20:16;;;;;;;3.47;2.93;;;;;;;;;;5080457;28;20213;-78
2022/09/23 12:22:49;;;;;;;3.93;3.53;;;;;;;;;;5074999;28;20191;-78
2022/09/23 12:25:34;;;;;;;3.43;3.00;;;;;;;;;;5084337;28;20294;-79
2022/09/23 12:28:06;;;;;;;3.40;3.10;;;;;;;;;;5077381;28;20281;-79
2022/09/23 12:30:34;;;;;;;4.03;2.80;;;;;;;;;;5083237;28;20200;-78
2022/09/23 12:33:07;;;;;;;3.63;3.10;;;;;;;;;;5085658;28;20267;-78
2022/09/23 12:35:45;;;;;;;6.90;5.47;;;;;;;;;;5080371;28;20201;-78
2022/09/23 12:38:24;;;;;;;7.57;4.20;;;;;;;;;;5084632;28;20172;-78
2022/09/23 12:40:52;;;;;;;4.60;3.47;;;;;;;;;;5066575;28;20234;-79
2022/09/23 12:43:29;;;;;;;6.27;3.57;;;;;;;;;;5084504;28;20188;-79
2022/09/23 12:46:31;;;;;;;4.23;3.30;;;;;;;;;;5077669;28;20188;-78
2022/09/23 12:48:59;;;;;;;4.37;3.10;;;;;;;;;;5007381;28;20209;-78
2022/09/23 12:51:27;;;;;;;5.67;3.50;;;;;;;;;;5072315;28;20216;-80
2022/09/23 12:53:56;;;;;;;4.23;2.60;;;;;;;;;;5090179;28;20187;-80
2022/09/23 12:56:25;;;;;;;3.60;2.87;;;;;;;;;;5063376;28;20189;-80
2022/09/23 12:59:13;;;;;;;3.97;2.80;;;;;;;;;;5090855;28;20214;-80
2022/09/23 13:01:40;;;;;;;3.53;2.97;;;;;;;;;;5059212;28;20230;-79
2022/09/23 13:07:14;;;;;;;4.47;3.00;;;;;;;;;;5075807;28;20193;-79
2022/09/23 13:09:42;;;;;;;3.93;2.80;;;;;;;;;;5076489;28;20620;-80
2022/09/23 13:12:30;;;;;;;3.07;2.50;;;;;;;;;;5072642;28;20204;-78
2022/09/23 13:15:04;;;;;;;3.50;3.20;;;;;;;;;;5083285;28;20188;-78
2022/09/23 13:17:39;;;;;;;4.03;2.70;;;;;;;;;;5083903;28;20188;-80
2022/09/23 13:20:25;;;;;;;4.00;2.70;;;;;;;;;;5081457;28;20208;-79
2022/09/23 13:22:52;;;;;;;3.57;2.60;;;;;;;;;;5075104;28;20206;-79
2022/09/23 13:25:24;;;;;;;3.73;2.50;;;;;;;;;;5077257;28;20527;-79
2022/09/23 13:27:52;;;;;;;4.03;2.60;;;;;;;;;;5063363;28;20222;-78
2022/09/23 13:30:22;;;;;;;3.80;2.50;;;;;;;;;;5077996;28;20206;-79
2022/09/23 13:33:07;;;;;;;3.57;2.30;;;;;;;;;;5075840;28;20177;-77
2022/09/23 13:35:37;;;;;;;5.73;2.80;;;;;;;;;;5069629;28;20200;-78
2022/09/23 13:38:25;;;;;;;2.57;2.13;;;;;;;;;;5056294;28;20173;-78
2022/09/23 13:40:54;;;;;;;3.00;2.43;;;;;;;;;;5060267;28;20184;-78
2022/09/23 13:43:25;;;;;;;2.70;2.50;;;;;;;;;;5088294;28;20541;-78
2022/09/23 13:45:51;;;;;;;5.10;3.10;;;;;;;;;;5081880;28;20177;-80
2022/09/23 13:48:20;;;;;;;4.50;2.70;;;;;;;;;;5082548;28;20177;-78
2022/09/23 13:50:48;;;;;;;3.70;2.80;;;;;;;;;;5083013;28;20234;-77
2022/09/23 13:53:29;;;;;;;5.90;2.97;;;;;;;;;;5087735;28;20679;-77
2022/09/23 13:56:07;;;;;;;3.57;2.53;;;;;;;;;;5088819;28;20192;-78
2022/09/23 13:58:37;;;;;;;4.07;2.97;;;;;;;;;;5082419;28;20574;-77
2022/09/23 14:01:09;;;;;;;4.13;2.90;;;;;;;;;;5086641;28;20184;-78
2022/09/23 14:03:37;;;;;;;3.13;2.53;;;;;;;;;;5081022;28;20599;-77
2022/09/23 14:06:08;;;;;;;5.63;2.70;;;;;;;;;;5067766;28;20190;-77
2022/09/23 14:08:38;;;;;;;3.93;2.70;;;;;;;;;;5061347;28;20176;-76
2022/09/23 14:11:06;;;;;;;5.03;2.90;;;;;;;;;;5061503;28;20208;-77
2022/09/23 14:13:38;;;;;;;4.50;2.90;;;;;;;;;;5080920;28;20184;-77
2022/09/23 14:16:04;;;;;;;3.97;3.10;;;;;;;;;;5070486;28;20278;-76
2022/09/23 14:18:53;;;;;;;4.57;2.63;;;;;;;;;;5088693;28;20234;-77
2022/09/23 14:21:34;;;;;;;5.00;3.03;;;;;;;;;;5087093;28;20228;-78
2022/09/23 14:24:21;;;;;;;4.60;2.70;;;;;;;;;;5078535;28;20180;-77
2022/09/23 14:26:56;;;;;;;5.57;2.80;;;;;;;;;;5082797;28;20192;-78
2022/09/23 14:29:24;;;;;;;2.63;2.43;;;;;;;;;;5088205;28;20274;-77
2022/09/23 14:31:59;;;;;;;3.90;2.60;;;;;;;;;;5083235;28;20208;-77
2022/09/23 14:34:44;;;;;;;2.93;2.40;;;;;;;;;;5080368;28;20168;-78
2022/09/23 14:40:09;;;;;;;2.80;2.43;;;;;;;;;;5081483;28;20291;-77
2022/09/23 14:42:42;;;;;;;5.87;2.17;;;;;;;;;;5077556;28;20655;-77
2022/09/23 14:45:13;;;;;;;5.70;2.80;;;;;;;;;;5058770;28;20201;-77
2022/09/23 14:47:42;;;;;;;3.27;2.50;;;;;;;;;;5062375;28;20241;-77
2022/09/23 14:53:39;;;;;;;3.70;2.63;;;;;;;;;;5069805;28;20266;-77
2022/09/23 14:56:05;;;;;;;3.63;2.63;;;;;;;;;;5021341;28;20203;-78
2022/09/23 14:58:43;;;;;;;3.23;2.70;;;;;;;;;;5042622;28;20291;-77
2022/09/23 15:01:29;;;;;;;3.10;2.70;;;;;;;;;;5076110;28;20188;-76
2022/09/23 15:03:58;;;;;;;2.83;2.27;;;;;;;;;;5067737;28;20183;-77
2022/09/23 15:06:29;;;;;;;2.90;2.60;;;;;;;;;;5086456;28;20188;-79
2022/09/23 15:08:56;;;;;;;3.17;2.67;;;;;;;;;;5086295;28;20760;-77
2022/09/23 15:11:23;;;;;;;4.83;2.80;;;;;;;;;;5076366;28;20200;-77
2022/09/23 15:13:51;;;;;;;3.50;2.53;;;;;;;;;;5069649;28;20518;-77
2022/09/23 15:16:27;;;;;;;4.07;3.07;;;;;;;;;;5069776;28;20181;-77
2022/09/23 15:19:00;;;;;;;4.47;2.73;;;;;;;;;;5061949;28;20224;-77
2022/09/23 15:21:33;;;;;;;4.07;2.80;;;;;;;;;;5068818;28;20171;-77
2022/09/23 15:24:00;;;;;;;3.33;2.43;;;;;;;;;;5082637;28;20189;-77
2022/09/23 15:26:44;;;;;;;5.13;3.10;;;;;;;;;;5056391;28;20196;-78